Portada
METAR-TAF:

METAR-TAF

Aeropuertos :

Aeropuerto Internacional Gobernador Francisco Gabrielli

Mendoza, Argentina

latitud: 32-50S, longitud: 068-47W, altitud: 705 m

Observación

El informe se hizo hace 41 minutos, a las 19:00 UTC
Viento 4 kt del norte
Temperatura 14°C
Humedad 47%
Presión 1010 hPa
Visibilidad 10 km o más
Escasas nubes a una altura de 4000 ft

METAR: SAME 221900Z 36004KT 9999 FEW040 14/03 Q1010

Hora: 16:41 (19:41 UTC)

Pronóstico

El informe se hizo hace 2 horas y 41 minutos, a las 17:00 UTC
Pronóstico válido del 22 a las 18 UTC al 23 a las 18 UTC
Viento 5 kt del sureste
Visibilidad 10 km o más
Escasas nubes a una altura de 4000 ft
Nubes dispersas a una altura de 10000 ft

TAF: SAME 221700Z 2218/2318 14005KT 9999 FEW040 SCT100 TX14/2220Z TN01/2310Z

Observaciones y pronósticos meteorológicos de más de 4000 aeropuertos (mensajes METAR y TAF).

Los puntos amarillos y rojos representan las estaciones disponibles.

Ponga el ratón en el punto deseado para ver el nombre de la estación.

Haga clic para ver las observaciones y los pronósticos meteorológicos.

Para cambiar el mapa : haga clic en los botones verdes con una cruz de color negro para hacer un zoom, en el botón verde con un guión para alejar o en las flechas verdes para mapas adyacentes.


METAR-TAF: